sensor_id;sensor_type;location;lat;lon;timestamp;pressure;altitude;pressure_sealevel;temperature;humidity
76637;BME280;65532;52.124;5.480;2023-04-23T00:00:21;100765.03;;;6.86;0.00
76637;BME280;65532;52.124;5.480;2023-04-23T00:02:51;100757.97;;;6.85;0.00
76637;BME280;65532;52.124;5.480;2023-04-23T00:05:19;100760.06;;;6.83;0.00
76637;BME280;65532;52.124;5.480;2023-04-23T00:07:45;100760.28;;;6.82;0.00
76637;BME280;65532;52.124;5.480;2023-04-23T00:10:12;100758.84;;;6.79;0.00
76637;BME280;65532;52.124;5.480;2023-04-23T00:12:39;100759.84;;;6.78;0.00
76637;BME280;65532;52.124;5.480;2023-04-23T00:15:06;100761.31;;;6.74;0.00
76637;BME280;65532;52.124;5.480;2023-04-23T00:17:33;100761.72;;;6.71;0.00
76637;BME280;65532;52.124;5.480;2023-04-23T00:20:00;100763.78;;;6.69;0.00
76637;BME280;65532;52.124;5.480;2023-04-23T00:22:26;100771.25;;;6.67;0.00
76637;BME280;65532;52.124;5.480;2023-04-23T00:24:53;100764.63;;;6.63;0.00
76637;BME280;65532;52.124;5.480;2023-04-23T00:27:19;100757.56;;;6.62;0.00
76637;BME280;65532;52.124;5.480;2023-04-23T00:29:48;100754.69;;;6.64;0.00
76637;BME280;65532;52.124;5.480;2023-04-23T00:32:16;100750.31;;;6.63;0.00
76637;BME280;65532;52.124;5.480;2023-04-23T00:34:42;100756.75;;;6.61;0.00
76637;BME280;65532;52.124;5.480;2023-04-23T00:37:09;100753.22;;;6.61;0.00
76637;BME280;65532;52.124;5.480;2023-04-23T00:39:36;100745.16;;;6.61;0.00
76637;BME280;65532;52.124;5.480;2023-04-23T00:42:04;100740.59;;;6.61;0.00
76637;BME280;65532;52.124;5.480;2023-04-23T00:44:37;100731.09;;;6.59;0.00
76637;BME280;65532;52.124;5.480;2023-04-23T00:47:05;100726.97;;;6.56;0.00
76637;BME280;65532;52.124;5.480;2023-04-23T00:49:33;100730.69;;;6.55;0.00
76637;BME280;65532;52.124;5.480;2023-04-23T00:52:00;100721.59;;;6.56;0.00
76637;BME280;65532;52.124;5.480;2023-04-23T00:54:27;100723.03;;;6.59;0.00
76637;BME280;65532;52.124;5.480;2023-04-23T00:56:57;100720.56;;;6.57;0.00
76637;BME280;65532;52.124;5.480;2023-04-23T00:59:25;100724.06;;;6.58;0.00
76637;BME280;65532;52.124;5.480;2023-04-23T01:01:52;100725.72;;;6.59;0.00
76637;BME280;65532;52.124;5.480;2023-04-23T01:04:20;100721.38;;;6.58;0.00
76637;BME280;65532;52.124;5.480;2023-04-23T01:06:48;100723.66;;;6.61;0.00
76637;BME280;65532;52.124;5.480;2023-04-23T01:09:15;100719.75;;;6.64;0.00
76637;BME280;65532;52.124;5.480;2023-04-23T01:11:43;100726.56;;;6.66;0.00
76637;BME280;65532;52.124;5.480;2023-04-23T01:14:10;100721.97;;;6.73;0.00
76637;BME280;65532;52.124;5.480;2023-04-23T01:16:37;100723.22;;;6.77;0.00
76637;BME280;65532;52.124;5.480;2023-04-23T01:19:08;100707.50;;;6.81;0.00
76637;BME280;65532;52.124;5.480;2023-04-23T01:21:37;100710.59;;;6.84;0.00
76637;BME280;65532;52.124;5.480;2023-04-23T01:24:07;100694.66;;;6.83;0.00
76637;BME280;65532;52.124;5.480;2023-04-23T01:26:34;100696.09;;;6.85;0.00
76637;BME280;65532;52.124;5.480;2023-04-23T01:29:01;100690.50;;;6.87;0.00
76637;BME280;65532;52.124;5.480;2023-04-23T01:31:28;100689.69;;;6.86;0.00
76637;BME280;65532;52.124;5.480;2023-04-23T01:33:56;100693.41;;;6.85;0.00
76637;BME280;65532;52.124;5.480;2023-04-23T01:36:24;100685.34;;;6.85;0.00
76637;BME280;65532;52.124;5.480;2023-04-23T01:38:50;100693.41;;;6.85;0.00
76637;BME280;65532;52.124;5.480;2023-04-23T01:41:17;100686.38;;;6.84;0.00
76637;BME280;65532;52.124;5.480;2023-04-23T01:43:45;100682.84;;;6.84;0.00
76637;BME280;65532;52.124;5.480;2023-04-23T01:46:12;100683.47;;;6.86;0.00
76637;BME280;65532;52.124;5.480;2023-04-23T01:48:39;100679.13;;;6.85;0.00
76637;BME280;65532;52.124;5.480;2023-04-23T01:51:05;100670.22;;;6.84;0.00
76637;BME280;65532;52.124;5.480;2023-04-23T01:53:32;100681.00;;;6.84;0.00
76637;BME280;65532;52.124;5.480;2023-04-23T01:55:59;100667.97;;;6.81;0.00
76637;BME280;65532;52.124;5.480;2023-04-23T01:58:26;100670.66;;;6.81;0.00
76637;BME280;65532;52.124;5.480;2023-04-23T02:00:53;100675.22;;;6.81;0.00
76637;BME280;65532;52.124;5.480;2023-04-23T02:03:19;100670.66;;;6.81;0.00
76637;BME280;65532;52.124;5.480;2023-04-23T02:05:46;100668.56;;;6.83;0.00
76637;BME280;65532;52.124;5.480;2023-04-23T02:08:13;100670.63;;;6.88;0.00
76637;BME280;65532;52.124;5.480;2023-04-23T02:10:40;100664.00;;;6.90;0.00
76637;BME280;65532;52.124;5.480;2023-04-23T02:13:07;100661.91;;;6.93;0.00
76637;BME280;65532;52.124;5.480;2023-04-23T02:15:33;100659.88;;;6.95;0.00
76637;BME280;65532;52.124;5.480;2023-04-23T02:18:00;100665.84;;;6.97;0.00
76637;BME280;65532;52.124;5.480;2023-04-23T02:20:27;100659.44;;;6.98;0.00
76637;BME280;65532;52.124;5.480;2023-04-23T02:22:53;100651.97;;;7.00;0.00
76637;BME280;65532;52.124;5.480;2023-04-23T02:25:20;100648.84;;;7.03;0.00
76637;BME280;65532;52.124;5.480;2023-04-23T02:27:47;100649.03;;;7.08;0.00
76637;BME280;65532;52.124;5.480;2023-04-23T02:30:14;100646.94;;;7.10;0.00
76637;BME280;65532;52.124;5.480;2023-04-23T02:32:40;100637.84;;;7.11;0.00
76637;BME280;65532;52.124;5.480;2023-04-23T02:35:08;100650.06;;;7.13;0.00
76637;BME280;65532;52.124;5.480;2023-04-23T02:37:36;100641.75;;;7.15;0.00
76637;BME280;65532;52.124;5.480;2023-04-23T02:40:02;100645.69;;;7.19;0.00
76637;BME280;65532;52.124;5.480;2023-04-23T02:42:31;100641.72;;;7.21;0.00
76637;BME280;65532;52.124;5.480;2023-04-23T02:44:57;100644.19;;;7.23;0.00
76637;BME280;65532;52.124;5.480;2023-04-23T02:47:24;100639.84;;;7.22;0.00
76637;BME280;65532;52.124;5.480;2023-04-23T02:49:50;100639.84;;;7.22;0.00
76637;BME280;65532;52.124;5.480;2023-04-23T02:52:17;100639.84;;;7.22;0.00
76637;BME280;65532;52.124;5.480;2023-04-23T02:54:44;100636.94;;;7.24;0.00
76637;BME280;65532;52.124;5.480;2023-04-23T02:57:10;100639.41;;;7.25;0.00
76637;BME280;65532;52.124;5.480;2023-04-23T02:59:39;100636.72;;;7.25;0.00
76637;BME280;65532;52.124;5.480;2023-04-23T03:02:06;100634.88;;;7.26;0.00
76637;BME280;65532;52.124;5.480;2023-04-23T03:04:32;100640.25;;;7.26;0.00
76637;BME280;65532;52.124;5.480;2023-04-23T03:06:59;100646.50;;;7.26;0.00
76637;BME280;65532;52.124;5.480;2023-04-23T03:09:26;100645.63;;;7.26;0.00
76637;BME280;65532;52.124;5.480;2023-04-23T03:11:53;100633.03;;;7.26;0.00
76637;BME280;65532;52.124;5.480;2023-04-23T03:14:19;100637.38;;;7.27;0.00
76637;BME280;65532;52.124;5.480;2023-04-23T03:16:46;100646.06;;;7.29;0.00
76637;BME280;65532;52.124;5.480;2023-04-23T03:19:13;100645.63;;;7.32;0.00
76637;BME280;65532;52.124;5.480;2023-04-23T03:21:39;100643.97;;;7.31;0.00
76637;BME280;65532;52.124;5.480;2023-04-23T03:24:07;100641.28;;;7.31;0.00
76637;BME280;65532;52.124;5.480;2023-04-23T03:26:33;100637.97;;;7.29;0.00
76637;BME280;65532;52.124;5.480;2023-04-23T03:29:00;100633.19;;;7.31;0.00
76637;BME280;65532;52.124;5.480;2023-04-23T03:31:27;100631.53;;;7.30;0.00
76637;BME280;65532;52.124;5.480;2023-04-23T03:33:53;100628.84;;;7.30;0.00
76637;BME280;65532;52.124;5.480;2023-04-23T03:36:27;100634.25;;;7.30;0.00
76637;BME280;65532;52.124;5.480;2023-04-23T03:38:53;100631.53;;;7.30;0.00
76637;BME280;65532;52.124;5.480;2023-04-23T03:41:20;100620.78;;;7.30;0.00
76637;BME280;65532;52.124;5.480;2023-04-23T03:43:48;100611.66;;;7.31;0.00
76637;BME280;65532;52.124;5.480;2023-04-23T03:46:24;100622.00;;;7.34;0.00
76637;BME280;65532;52.124;5.480;2023-04-23T03:48:51;100623.84;;;7.34;0.00
76637;BME280;65532;52.124;5.480;2023-04-23T03:51:24;100625.72;;;7.33;0.00
76637;BME280;65532;52.124;5.480;2023-04-23T03:53:50;100624.06;;;7.32;0.00
76637;BME280;65532;52.124;5.480;2023-04-23T03:56:43;100624.06;;;7.32;0.00
76637;BME280;65532;52.124;5.480;2023-04-23T03:59:19;100624.06;;;7.32;0.00
76637;BME280;65532;52.124;5.480;2023-04-23T04:01:48;100621.59;;;7.31;0.00
76637;BME280;65532;52.124;5.480;2023-04-23T04:04:14;100620.78;;;7.30;0.00
76637;BME280;65532;52.124;5.480;2023-04-23T04:06:41;100617.47;;;7.28;0.00
76637;BME280;65532;52.124;5.480;2023-04-23T04:09:08;100616.22;;;7.31;0.00
76637;BME280;65532;52.124;5.480;2023-04-23T04:11:34;100618.31;;;7.29;0.00
76637;BME280;65532;52.124;5.480;2023-04-23T04:14:01;100618.31;;;7.29;0.00
76637;BME280;65532;52.124;5.480;2023-04-23T04:16:28;100617.47;;;7.28;0.00
76637;BME280;65532;52.124;5.480;2023-04-23T04:18:54;100617.47;;;7.28;0.00
76637;BME280;65532;52.124;5.480;2023-04-23T04:21:22;100608.78;;;7.26;0.00
76637;BME280;65532;52.124;5.480;2023-04-23T04:23:48;100611.88;;;7.23;0.00
76637;BME280;65532;52.124;5.480;2023-04-23T04:26:14;100613.38;;;7.19;0.00
76637;BME280;65532;52.124;5.480;2023-04-23T04:28:41;100615.44;;;7.17;0.00
76637;BME280;65532;52.124;5.480;2023-04-23T04:31:07;100618.38;;;7.15;0.00
76637;BME280;65532;52.124;5.480;2023-04-23T04:33:35;100610.50;;;7.14;0.00
76637;BME280;65532;52.124;5.480;2023-04-23T04:36:05;100621.72;;;7.11;0.00
76637;BME280;65532;52.124;5.480;2023-04-23T04:38:33;100625.41;;;7.10;0.00
76637;BME280;65532;52.124;5.480;2023-04-23T04:41:03;100614.63;;;7.10;0.00
76637;BME280;65532;52.124;5.480;2023-04-23T04:43:30;100626.25;;;7.10;0.00
76637;BME280;65532;52.124;5.480;2023-04-23T04:45:57;100626.44;;;7.09;0.00
76637;BME280;65532;52.124;5.480;2023-04-23T04:48:26;100633.09;;;7.06;0.00
76637;BME280;65532;52.124;5.480;2023-04-23T04:50:53;100622.09;;;7.08;0.00
76637;BME280;65532;52.124;5.480;2023-04-23T04:53:19;100623.75;;;7.09;0.00
76637;BME280;65532;52.124;5.480;2023-04-23T04:55:46;100630.78;;;7.10;0.00
76637;BME280;65532;52.124;5.480;2023-04-23T04:58:13;100628.75;;;7.12;0.00
76637;BME280;65532;52.124;5.480;2023-04-23T05:00:39;100623.97;;;7.14;0.00
76637;BME280;65532;52.124;5.480;2023-04-23T05:03:06;100625.41;;;7.16;0.00
76637;BME280;65532;52.124;5.480;2023-04-23T05:05:33;100626.41;;;7.22;0.00
76637;BME280;65532;52.124;5.480;2023-04-23T05:07:59;100624.94;;;7.26;0.00
76637;BME280;65532;52.124;5.480;2023-04-23T05:10:28;100623.03;;;7.33;0.00
76637;BME280;65532;52.124;5.480;2023-04-23T05:12:58;100622.59;;;7.36;0.00
76637;BME280;65532;52.124;5.480;2023-04-23T05:15:26;100619.47;;;7.39;0.00
76637;BME280;65532;52.124;5.480;2023-04-23T05:17:52;100620.06;;;7.41;0.00
76637;BME280;65532;52.124;5.480;2023-04-23T05:20:19;100619.66;;;7.44;0.00
76637;BME280;65532;52.124;5.480;2023-04-23T05:22:46;100614.66;;;7.48;0.00
76637;BME280;65532;52.124;5.480;2023-04-23T05:25:13;100626.44;;;7.54;0.00
76637;BME280;65532;52.124;5.480;2023-04-23T05:27:40;100615.22;;;7.57;0.00
76637;BME280;65532;52.124;5.480;2023-04-23T05:30:08;100621.63;;;7.62;0.00
76637;BME280;65532;52.124;5.480;2023-04-23T05:32:35;100627.19;;;7.67;0.00
76637;BME280;65532;52.124;5.480;2023-04-23T05:35:02;100619.66;;;7.76;0.00
76637;BME280;65532;52.124;5.480;2023-04-23T05:37:29;100629.56;;;7.82;0.00
76637;BME280;65532;52.124;5.480;2023-04-23T05:39:56;100628.28;;;7.85;0.00
76637;BME280;65532;52.124;5.480;2023-04-23T05:42:23;100617.25;;;7.93;0.00
76637;BME280;65532;52.124;5.480;2023-04-23T05:44:50;100619.28;;;7.97;0.00
76637;BME280;65532;52.124;5.480;2023-04-23T05:47:17;100629.81;;;8.05;0.00
76637;BME280;65532;52.124;5.480;2023-04-23T05:49:43;100630.34;;;8.14;0.00
76637;BME280;65532;52.124;5.480;2023-04-23T05:52:10;100632.56;;;8.24;0.00
76637;BME280;65532;52.124;5.480;2023-04-23T05:54:37;100632.91;;;8.34;0.00
76637;BME280;65532;52.124;5.480;2023-04-23T05:57:04;100633.44;;;8.43;0.00
76637;BME280;65532;52.124;5.480;2023-04-23T05:59:30;100624.22;;;8.50;0.00
76637;BME280;65532;52.124;5.480;2023-04-23T06:01:57;100630.19;;;8.59;0.00
76637;BME280;65532;52.124;5.480;2023-04-23T06:04:23;100625.09;;;8.69;0.00
76637;BME280;65532;52.124;5.480;2023-04-23T06:06:50;100636.19;;;8.79;0.00
76637;BME280;65532;52.124;5.480;2023-04-23T06:09:17;100636.50;;;8.89;0.00
76637;BME280;65532;52.124;5.480;2023-04-23T06:11:43;100626.81;;;9.00;0.00
76637;BME280;65532;52.124;5.480;2023-04-23T06:14:10;100626.50;;;9.08;0.00
76637;BME280;65532;52.124;5.480;2023-04-23T06:16:36;100616.22;;;9.17;3.78
76637;BME280;65532;52.124;5.480;2023-04-23T06:19:03;100612.72;;;9.28;6.73
76637;BME280;65532;52.124;5.480;2023-04-23T06:21:29;100613.59;;;9.40;11.24
76637;BME280;65532;52.124;5.480;2023-04-23T06:23:57;100608.50;;;9.50;15.75
76637;BME280;65532;52.124;5.480;2023-04-23T06:26:24;100610.03;;;9.58;21.12
76637;BME280;65532;52.124;5.480;2023-04-23T06:28:53;100606.06;;;9.72;24.54
76637;BME280;65532;52.124;5.480;2023-04-23T06:31:33;100598.00;;;9.84;31.12
76637;BME280;65532;52.124;5.480;2023-04-23T06:34:00;100592.63;;;9.96;35.16
76637;BME280;65532;52.124;5.480;2023-04-23T06:36:26;100600.47;;;10.09;38.03
76637;BME280;65532;52.124;5.480;2023-04-23T06:38:53;100598.84;;;10.19;40.65
76637;BME280;65532;52.124;5.480;2023-04-23T06:41:19;100594.19;;;10.27;45.54
76637;BME280;65532;52.124;5.480;2023-04-23T06:43:55;100590.28;;;10.34;50.96
76637;BME280;65532;52.124;5.480;2023-04-23T06:46:30;100589.47;;;10.45;55.41
76637;BME280;65532;52.124;5.480;2023-04-23T06:48:57;100589.34;;;10.64;58.44
76637;BME280;65532;52.124;5.480;2023-04-23T06:51:26;100589.09;;;10.77;62.84
76637;BME280;65532;52.124;5.480;2023-04-23T06:53:53;100590.91;;;10.88;64.32
76637;BME280;65532;52.124;5.480;2023-04-23T06:56:20;100591.47;;;11.02;69.72
76637;BME280;65532;52.124;5.480;2023-04-23T06:58:47;100586.09;;;11.19;71.64
76637;BME280;65532;52.124;5.480;2023-04-23T07:01:18;100577.81;;;11.37;73.21
76637;BME280;65532;52.124;5.480;2023-04-23T07:03:45;100583.78;;;12.73;55.62
76637;BME280;65532;52.124;5.480;2023-04-23T07:06:14;100583.31;;;14.48;89.38
76637;BME280;65532;52.124;5.480;2023-04-23T07:08:42;100578.31;;;16.06;89.75
76637;BME280;65532;52.124;5.480;2023-04-23T07:11:10;100573.69;;;17.12;84.83
76637;BME280;65532;52.124;5.480;2023-04-23T07:13:38;100571.72;;;17.72;78.90
76637;BME280;65532;52.124;5.480;2023-04-23T07:16:05;100573.13;;;18.27;77.98
76637;BME280;65532;52.124;5.480;2023-04-23T07:18:32;100572.00;;;19.05;72.94
76637;BME280;65532;52.124;5.480;2023-04-23T07:20:58;100573.22;;;19.36;70.37
76637;BME280;65532;52.124;5.480;2023-04-23T07:23:25;100565.81;;;19.18;66.87
76637;BME280;65532;52.124;5.480;2023-04-23T07:25:51;100575.44;;;19.58;66.10
76637;BME280;65532;52.124;5.480;2023-04-23T07:28:18;100571.19;;;19.66;64.61
76637;BME280;65532;52.124;5.480;2023-04-23T07:30:44;100565.19;;;19.96;61.61
76637;BME280;65532;52.124;5.480;2023-04-23T07:33:11;100569.47;;;20.02;65.23
76637;BME280;65532;52.124;5.480;2023-04-23T07:35:37;100578.75;;;19.74;62.91
76637;BME280;65532;52.124;5.480;2023-04-23T07:38:04;100567.44;;;19.94;61.76
76637;BME280;65532;52.124;5.480;2023-04-23T07:40:31;100570.41;;;20.44;60.35
76637;BME280;65532;52.124;5.480;2023-04-23T07:42:57;100571.34;;;20.94;58.85
76637;BME280;65532;52.124;5.480;2023-04-23T07:45:24;100569.56;;;21.12;57.51
76637;BME280;65532;52.124;5.480;2023-04-23T07:47:50;100570.22;;;20.96;57.79
76637;BME280;65532;52.124;5.480;2023-04-23T07:50:17;100564.41;;;21.25;58.14
76637;BME280;65532;52.124;5.480;2023-04-23T07:52:43;100559.03;;;21.78;55.70
76637;BME280;65532;52.124;5.480;2023-04-23T07:55:10;100564.34;;;21.97;56.04
76637;BME280;65532;52.124;5.480;2023-04-23T07:57:36;100566.59;;;21.72;58.38
76637;BME280;65532;52.124;5.480;2023-04-23T08:00:04;100561.72;;;21.33;55.95
76637;BME280;65532;52.124;5.480;2023-04-23T08:02:40;100556.91;;;21.39;54.72
76637;BME280;65532;52.124;5.480;2023-04-23T08:05:07;100564.81;;;21.04;55.33
76637;BME280;65532;52.124;5.480;2023-04-23T08:07:33;100557.88;;;20.66;56.48
76637;BME280;65532;52.124;5.480;2023-04-23T08:10:00;100550.75;;;20.64;56.53
76637;BME280;65532;52.124;5.480;2023-04-23T08:12:31;100551.38;;;21.03;56.26
76637;BME280;65532;52.124;5.480;2023-04-23T08:14:59;100552.69;;;21.77;55.17
76637;BME280;65532;52.124;5.480;2023-04-23T08:17:33;100552.31;;;21.70;53.10
76637;BME280;65532;52.124;5.480;2023-04-23T08:19:59;100550.91;;;22.04;52.94
76637;BME280;65532;52.124;5.480;2023-04-23T08:22:26;100549.56;;;21.70;52.94
76637;BME280;65532;52.124;5.480;2023-04-23T08:24:52;100540.00;;;21.32;55.24
76637;BME280;65532;52.124;5.480;2023-04-23T08:27:19;100542.78;;;21.76;54.13
76637;BME280;65532;52.124;5.480;2023-04-23T08:29:45;100542.91;;;21.71;53.66
76637;BME280;65532;52.124;5.480;2023-04-23T08:32:12;100544.91;;;21.07;54.85
76637;BME280;65532;52.124;5.480;2023-04-23T08:34:38;100543.78;;;20.26;55.94
76637;BME280;65532;52.124;5.480;2023-04-23T08:37:05;100549.72;;;19.49;56.58
76637;BME280;65532;52.124;5.480;2023-04-23T08:39:35;100544.31;;;18.82;59.74
76637;BME280;65532;52.124;5.480;2023-04-23T08:42:15;100544.81;;;18.37;60.76
76637;BME280;65532;52.124;5.480;2023-04-23T08:44:45;100547.66;;;18.26;62.50
76637;BME280;65532;52.124;5.480;2023-04-23T08:47:14;100544.69;;;18.23;62.58
76637;BME280;65532;52.124;5.480;2023-04-23T08:49:44;100535.78;;;18.07;62.88
76637;BME280;65532;52.124;5.480;2023-04-23T08:52:15;100544.16;;;17.92;64.35
76637;BME280;65532;52.124;5.480;2023-04-23T08:54:48;100538.38;;;17.93;64.80
76637;BME280;65532;52.124;5.480;2023-04-23T08:57:16;100533.03;;;18.36;64.22
76637;BME280;65532;52.124;5.480;2023-04-23T08:59:44;100538.53;;;18.07;64.92
76637;BME280;65532;52.124;5.480;2023-04-23T09:02:12;100545.22;;;17.96;65.27
76637;BME280;65532;52.124;5.480;2023-04-23T09:04:40;100531.94;;;18.08;63.84
76637;BME280;65532;52.124;5.480;2023-04-23T09:07:06;100537.78;;;18.02;64.29
76637;BME280;65532;52.124;5.480;2023-04-23T09:09:37;100527.13;;;17.95;64.48
76637;BME280;65532;52.124;5.480;2023-04-23T09:12:06;100534.97;;;18.07;65.03
76637;BME280;65532;52.124;5.480;2023-04-23T09:14:33;100526.41;;;18.13;64.16
76637;BME280;65532;52.124;5.480;2023-04-23T09:17:03;100535.03;;;18.31;64.36
76637;BME280;65532;52.124;5.480;2023-04-23T09:19:30;100525.94;;;18.35;63.75
76637;BME280;65532;52.124;5.480;2023-04-23T09:21:58;100524.28;;;18.58;64.85
76637;BME280;65532;52.124;5.480;2023-04-23T09:24:27;100528.66;;;18.59;63.79
76637;BME280;65532;52.124;5.480;2023-04-23T09:26:53;100526.34;;;18.47;64.39
76637;BME280;65532;52.124;5.480;2023-04-23T09:29:21;100525.72;;;18.26;63.28
76637;BME280;65532;52.124;5.480;2023-04-23T09:31:50;100519.28;;;18.12;64.32
76637;BME280;65532;52.124;5.480;2023-04-23T09:34:18;100514.94;;;18.11;63.06
76637;BME280;65532;52.124;5.480;2023-04-23T09:36:47;100514.06;;;17.87;63.38
76637;BME280;65532;52.124;5.480;2023-04-23T09:39:20;100510.31;;;18.07;63.78
76637;BME280;65532;52.124;5.480;2023-04-23T09:41:47;100515.50;;;18.08;65.08
76637;BME280;65532;52.124;5.480;2023-04-23T09:44:17;100509.69;;;18.15;63.72
76637;BME280;65532;52.124;5.480;2023-04-23T09:46:44;100513.25;;;18.15;63.32
76637;BME280;65532;52.124;5.480;2023-04-23T09:49:11;100510.41;;;18.25;63.82
76637;BME280;65532;52.124;5.480;2023-04-23T09:51:41;100511.78;;;18.23;63.03
76637;BME280;65532;52.124;5.480;2023-04-23T09:54:13;100507.41;;;18.22;61.86
76637;BME280;65532;52.124;5.480;2023-04-23T09:56:41;100503.56;;;17.99;61.05
76637;BME280;65532;52.124;5.480;2023-04-23T09:59:22;100504.47;;;17.89;61.35
76637;BME280;65532;52.124;5.480;2023-04-23T10:02:09;100510.47;;;17.91;62.90
76637;BME280;65532;52.124;5.480;2023-04-23T10:04:37;100501.97;;;17.93;61.91
76637;BME280;65532;52.124;5.480;2023-04-23T10:07:05;100500.81;;;17.99;62.26
76637;BME280;65532;52.124;5.480;2023-04-23T10:09:46;100500.56;;;17.95;62.23
76637;BME280;65532;52.124;5.480;2023-04-23T10:12:13;100492.41;;;18.14;61.54
76637;BME280;65532;52.124;5.480;2023-04-23T10:14:43;100505.56;;;18.17;62.01
76637;BME280;65532;52.124;5.480;2023-04-23T10:17:11;100505.16;;;18.53;60.52
76637;BME280;65532;52.124;5.480;2023-04-23T10:19:38;100501.75;;;18.61;59.72
76637;BME280;65532;52.124;5.480;2023-04-23T10:22:09;100504.59;;;18.80;58.13
76637;BME280;65532;52.124;5.480;2023-04-23T10:24:51;100499.91;;;18.80;57.40
76637;BME280;65532;52.124;5.480;2023-04-23T10:27:20;100505.44;;;18.27;59.43
76637;BME280;65532;52.124;5.480;2023-04-23T10:29:51;100496.16;;;18.23;59.87
76637;BME280;65532;52.124;5.480;2023-04-23T10:32:20;100495.44;;;18.13;59.30
76637;BME280;65532;52.124;5.480;2023-04-23T10:34:46;100488.13;;;18.32;59.94
76637;BME280;65532;52.124;5.480;2023-04-23T10:37:13;100492.16;;;18.40;59.61
76637;BME280;65532;52.124;5.480;2023-04-23T10:39:43;100493.91;;;18.31;58.79
76637;BME280;65532;52.124;5.480;2023-04-23T10:42:10;100488.81;;;18.19;58.45
76637;BME280;65532;52.124;5.480;2023-04-23T10:44:41;100490.41;;;17.96;58.29
76637;BME280;65532;52.124;5.480;2023-04-23T10:47:15;100472.47;;;17.85;58.33
76637;BME280;65532;52.124;5.480;2023-04-23T10:49:42;100477.53;;;17.67;59.30
76637;BME280;65532;52.124;5.480;2023-04-23T10:52:12;100478.91;;;17.99;60.21
76637;BME280;65532;52.124;5.480;2023-04-23T10:54:48;100466.31;;;18.22;59.41
76637;BME280;65532;52.124;5.480;2023-04-23T10:57:15;100458.38;;;18.20;58.57
76637;BME280;65532;52.124;5.480;2023-04-23T10:59:53;100463.28;;;18.23;58.22
76637;BME280;65532;52.124;5.480;2023-04-23T11:02:22;100459.78;;;18.42;58.20
76637;BME280;65532;52.124;5.480;2023-04-23T11:04:54;100461.22;;;18.58;58.34
76637;BME280;65532;52.124;5.480;2023-04-23T11:07:30;100458.53;;;18.53;57.05
76637;BME280;65532;52.124;5.480;2023-04-23T11:10:11;100453.34;;;18.27;56.71
76637;BME280;65532;52.124;5.480;2023-04-23T11:12:38;100453.22;;;18.14;56.27
76637;BME280;65532;52.124;5.480;2023-04-23T11:15:14;100444.91;;;18.00;55.33
76637;BME280;65532;52.124;5.480;2023-04-23T11:22:42;100434.28;;;18.41;54.54
76637;BME280;65532;52.124;5.480;2023-04-23T11:25:11;100436.00;;;18.56;55.47
76637;BME280;65532;52.124;5.480;2023-04-23T11:27:39;100430.22;;;18.58;55.92
76637;BME280;65532;52.124;5.480;2023-04-23T11:30:14;100432.44;;;18.79;54.97
76637;BME280;65532;52.124;5.480;2023-04-23T11:32:46;100426.97;;;18.79;54.25
76637;BME280;65532;52.124;5.480;2023-04-23T11:35:19;100419.47;;;18.61;55.12
76637;BME280;65532;52.124;5.480;2023-04-23T11:37:46;100422.81;;;18.63;55.34
76637;BME280;65532;52.124;5.480;2023-04-23T11:40:15;100409.09;;;18.58;55.24
76637;BME280;65532;52.124;5.480;2023-04-23T11:42:49;100416.38;;;18.49;54.97
76637;BME280;65532;52.124;5.480;2023-04-23T11:45:20;100403.91;;;18.38;54.70
76637;BME280;65532;52.124;5.480;2023-04-23T11:47:49;100395.75;;;18.33;54.59
76637;BME280;65532;52.124;5.480;2023-04-23T11:50:20;100395.16;;;18.36;54.37
76637;BME280;65532;52.124;5.480;2023-04-23T11:52:47;100392.72;;;18.10;54.54
76637;BME280;65532;52.124;5.480;2023-04-23T11:55:14;100389.75;;;18.31;54.85
76637;BME280;65532;52.124;5.480;2023-04-23T11:57:44;100378.84;;;18.25;54.42
76637;BME280;65532;52.124;5.480;2023-04-23T12:00:25;100380.53;;;18.21;54.67
76637;BME280;65532;52.124;5.480;2023-04-23T12:02:53;100374.84;;;17.94;54.58
76637;BME280;65532;52.124;5.480;2023-04-23T12:05:29;100375.53;;;18.05;54.37
76637;BME280;65532;52.124;5.480;2023-04-23T12:08:11;100362.28;;;18.12;53.92
76637;BME280;65532;52.124;5.480;2023-04-23T12:10:50;100369.06;;;18.19;54.18
76637;BME280;65532;52.124;5.480;2023-04-23T12:13:20;100363.91;;;18.37;54.99
76637;BME280;65532;52.124;5.480;2023-04-23T12:15:52;100357.06;;;18.15;54.93
76637;BME280;65532;52.124;5.480;2023-04-23T12:18:19;100352.00;;;18.04;54.18
76637;BME280;65532;52.124;5.480;2023-04-23T12:20:45;100345.03;;;18.11;54.22
76637;BME280;65532;52.124;5.480;2023-04-23T12:23:12;100345.69;;;18.03;54.96
76637;BME280;65532;52.124;5.480;2023-04-23T12:25:38;100347.41;;;17.99;53.77
76637;BME280;65532;52.124;5.480;2023-04-23T12:28:05;100343.88;;;17.93;54.19
76637;BME280;65532;52.124;5.480;2023-04-23T12:30:33;100344.19;;;17.63;54.52
76637;BME280;65532;52.124;5.480;2023-04-23T12:33:01;100349.16;;;17.90;54.70
76637;BME280;65532;52.124;5.480;2023-04-23T12:36:09;100337.22;;;18.23;54.24
76637;BME280;65532;52.124;5.480;2023-04-23T12:38:36;100330.63;;;18.43;53.24
76637;BME280;65532;52.124;5.480;2023-04-23T12:41:04;100333.31;;;18.48;53.23
76637;BME280;65532;52.124;5.480;2023-04-23T12:43:31;100327.16;;;18.38;53.73
76637;BME280;65532;52.124;5.480;2023-04-23T12:45:58;100313.81;;;18.50;54.52
76637;BME280;65532;52.124;5.480;2023-04-23T12:48:24;100312.09;;;18.54;53.95
76637;BME280;65532;52.124;5.480;2023-04-23T12:50:51;100312.00;;;18.59;52.59
76637;BME280;65532;52.124;5.480;2023-04-23T12:53:18;100311.72;;;18.98;52.63
76637;BME280;65532;52.124;5.480;2023-04-23T12:55:44;100307.69;;;19.09;52.08
76637;BME280;65532;52.124;5.480;2023-04-23T12:58:11;100297.25;;;19.25;52.41
76637;BME280;65532;52.124;5.480;2023-04-23T13:00:37;100299.88;;;19.30;52.13
76637;BME280;65532;52.124;5.480;2023-04-23T13:03:04;100291.19;;;18.96;52.70
76637;BME280;65532;52.124;5.480;2023-04-23T13:05:31;100295.06;;;18.57;52.85
76637;BME280;65532;52.124;5.480;2023-04-23T13:07:57;100296.78;;;18.53;53.21
76637;BME280;65532;52.124;5.480;2023-04-23T13:10:24;100293.88;;;18.44;54.92